sensor_id;sensor_type;location;lat;lon;timestamp;pressure;altitude;pressure_sealevel;temperature;humidity
23172;BME280;11754;42.664;23.594;2023-08-01T00:01:02;95101.28;;;19.26;71.75
23172;BME280;11754;42.664;23.594;2023-08-01T00:03:28;95085.94;;;19.21;71.83
23172;BME280;11754;42.664;23.594;2023-08-01T00:05:53;95098.75;;;19.19;71.75
23172;BME280;11754;42.664;23.594;2023-08-01T00:08:20;95095.47;;;19.17;71.96
23172;BME280;11754;42.664;23.594;2023-08-01T00:10:46;95095.09;;;19.13;72.49
23172;BME280;11754;42.664;23.594;2023-08-01T00:13:14;95089.19;;;19.11;72.49
23172;BME280;11754;42.664;23.594;2023-08-01T00:15:40;95081.72;;;19.02;72.63
23172;BME280;11754;42.664;23.594;2023-08-01T00:18:05;95076.38;;;19.02;72.69
23172;BME280;11754;42.664;23.594;2023-08-01T00:20:30;95081.72;;;19.02;72.91
23172;BME280;11754;42.664;23.594;2023-08-01T00:22:56;95087.88;;;19.02;72.93
23172;BME280;11754;42.664;23.594;2023-08-01T00:25:22;95086.00;;;19.03;73.10
23172;BME280;11754;42.664;23.594;2023-08-01T00:27:47;95083.34;;;19.03;73.15
23172;BME280;11754;42.664;23.594;2023-08-01T00:33:35;95068.94;;;19.04;73.20
23172;BME280;11754;42.664;23.594;2023-08-01T00:36:01;95070.13;;;19.08;72.96
23172;BME280;11754;42.664;23.594;2023-08-01T00:38:27;95069.63;;;19.11;72.93
23172;BME280;11754;42.664;23.594;2023-08-01T00:40:52;95072.47;;;19.16;72.71
23172;BME280;11754;42.664;23.594;2023-08-01T00:43:18;95071.41;;;19.17;72.75
23172;BME280;11754;42.664;23.594;2023-08-01T00:45:45;95072.56;;;19.09;72.82
23172;BME280;11754;42.664;23.594;2023-08-01T00:48:11;95075.47;;;19.08;72.78
23172;BME280;11754;42.664;23.594;2023-08-01T00:50:36;95063.38;;;19.05;72.97
23172;BME280;11754;42.664;23.594;2023-08-01T00:53:03;95063.13;;;19.07;72.58
23172;BME280;11754;42.664;23.594;2023-08-01T01:05:38;95055.03;;;19.25;71.54
23172;BME280;11754;42.664;23.594;2023-08-01T01:08:07;95063.75;;;19.20;71.63
23172;BME280;11754;42.664;23.594;2023-08-01T01:10:32;95063.84;;;19.14;71.57
23172;BME280;11754;42.664;23.594;2023-08-01T01:12:58;95061.06;;;19.09;71.50
23172;BME280;11754;42.664;23.594;2023-08-01T01:15:23;95045.47;;;19.06;71.47
23172;BME280;11754;42.664;23.594;2023-08-01T01:37:58;95051.88;;;18.75;73.36
23172;BME280;11754;42.664;23.594;2023-08-01T01:40:29;95050.19;;;18.62;73.40
23172;BME280;11754;42.664;23.594;2023-08-01T01:42:54;95047.59;;;18.55;73.23
23172;BME280;11754;42.664;23.594;2023-08-01T01:45:19;95051.91;;;18.56;73.23
23172;BME280;11754;42.664;23.594;2023-08-01T02:09:30;95054.56;;;18.26;74.65
23172;BME280;11754;42.664;23.594;2023-08-01T02:11:56;95047.88;;;18.17;75.14
23172;BME280;11754;42.664;23.594;2023-08-01T02:14:21;95055.75;;;18.12;75.21
23172;BME280;11754;42.664;23.594;2023-08-01T02:16:46;95047.81;;;18.05;75.71
23172;BME280;11754;42.664;23.594;2023-08-01T02:19:11;95041.06;;;18.02;75.28
23172;BME280;11754;42.664;23.594;2023-08-01T02:21:37;95048.19;;;18.09;75.30
23172;BME280;11754;42.664;23.594;2023-08-01T02:24:02;95048.78;;;18.11;75.03
23172;BME280;11754;42.664;23.594;2023-08-01T02:26:28;95052.03;;;18.13;74.73
23172;BME280;11754;42.664;23.594;2023-08-01T02:28:54;95051.47;;;18.11;74.64
23172;BME280;11754;42.664;23.594;2023-08-01T02:31:20;95045.28;;;18.10;74.26
23172;BME280;11754;42.664;23.594;2023-08-01T02:33:45;95042.91;;;18.02;74.19
23172;BME280;11754;42.664;23.594;2023-08-01T02:36:10;95054.63;;;18.01;74.18
23172;BME280;11754;42.664;23.594;2023-08-01T02:38:36;95044.66;;;17.96;73.79
23172;BME280;11754;42.664;23.594;2023-08-01T02:41:01;95040.78;;;17.92;73.93
23172;BME280;11754;42.664;23.594;2023-08-01T02:43:26;95046.41;;;17.84;74.33
23172;BME280;11754;42.664;23.594;2023-08-01T02:45:52;95052.84;;;17.76;74.50
23172;BME280;11754;42.664;23.594;2023-08-01T02:48:17;95050.06;;;17.65;74.58
23172;BME280;11754;42.664;23.594;2023-08-01T02:50:42;95051.75;;;17.59;75.21
23172;BME280;11754;42.664;23.594;2023-08-01T02:53:08;95050.63;;;17.48;75.74
23172;BME280;11754;42.664;23.594;2023-08-01T02:55:33;95050.72;;;17.42;76.09
23172;BME280;11754;42.664;23.594;2023-08-01T02:57:59;95060.28;;;17.24;77.20
23172;BME280;11754;42.664;23.594;2023-08-01T03:00:24;95058.19;;;17.26;77.33
23172;BME280;11754;42.664;23.594;2023-08-01T03:02:51;95052.06;;;17.26;77.10
23172;BME280;11754;42.664;23.594;2023-08-01T03:05:16;95047.59;;;17.20;77.18
23172;BME280;11754;42.664;23.594;2023-08-01T03:07:42;95050.88;;;17.22;76.93
23172;BME280;11754;42.664;23.594;2023-08-01T03:10:07;95048.47;;;17.14;77.36
23172;BME280;11754;42.664;23.594;2023-08-01T03:12:33;95047.31;;;17.03;77.78
23172;BME280;11754;42.664;23.594;2023-08-01T03:14:58;95051.22;;;17.00;78.26
23172;BME280;11754;42.664;23.594;2023-08-01T03:17:24;95053.13;;;16.93;78.55
23172;BME280;11754;42.664;23.594;2023-08-01T03:19:49;95055.38;;;16.96;78.43
23172;BME280;11754;42.664;23.594;2023-08-01T03:22:14;95052.91;;;16.95;78.63
23172;BME280;11754;42.664;23.594;2023-08-01T03:24:40;95048.84;;;16.92;79.11
23172;BME280;11754;42.664;23.594;2023-08-01T03:27:05;95054.78;;;16.88;79.68
23172;BME280;11754;42.664;23.594;2023-08-01T03:29:31;95055.44;;;16.83;79.86
23172;BME280;11754;42.664;23.594;2023-08-01T03:31:56;95051.31;;;16.87;79.67
23172;BME280;11754;42.664;23.594;2023-08-01T03:34:21;95060.50;;;16.91;80.22
23172;BME280;11754;42.664;23.594;2023-08-01T03:36:47;95059.50;;;16.92;80.59
23172;BME280;11754;42.664;23.594;2023-08-01T03:39:12;95066.44;;;16.93;80.89
23172;BME280;11754;42.664;23.594;2023-08-01T03:41:37;95066.44;;;16.93;81.32
23172;BME280;11754;42.664;23.594;2023-08-01T03:50:48;95072.69;;;17.05;78.96
23172;BME280;11754;42.664;23.594;2023-08-01T03:53:13;95073.16;;;17.02;78.49
23172;BME280;11754;42.664;23.594;2023-08-01T03:55:39;95090.34;;;17.07;78.50
23172;BME280;11754;42.664;23.594;2023-08-01T03:58:04;95091.53;;;17.11;78.09
23172;BME280;11754;42.664;23.594;2023-08-01T04:00:30;95078.78;;;17.13;77.41
23172;BME280;11754;42.664;23.594;2023-08-01T04:02:59;95075.13;;;17.14;76.95
23172;BME280;11754;42.664;23.594;2023-08-01T04:12:14;95076.75;;;17.15;77.06
23172;BME280;11754;42.664;23.594;2023-08-01T04:14:40;95084.09;;;17.19;77.30
23172;BME280;11754;42.664;23.594;2023-08-01T04:17:05;95086.13;;;17.24;77.58
23172;BME280;11754;42.664;23.594;2023-08-01T04:19:31;95083.59;;;17.29;77.38
23172;BME280;11754;42.664;23.594;2023-08-01T04:21:56;95091.75;;;17.34;77.79
23172;BME280;11754;42.664;23.594;2023-08-01T04:24:21;95082.31;;;17.38;77.99
23172;BME280;11754;42.664;23.594;2023-08-01T04:26:50;95082.47;;;17.43;77.85
23172;BME280;11754;42.664;23.594;2023-08-01T04:29:15;95089.13;;;17.52;77.85
23172;BME280;11754;42.664;23.594;2023-08-01T04:31:43;95075.97;;;17.58;77.68
23172;BME280;11754;42.664;23.594;2023-08-01T04:34:08;95078.31;;;17.72;77.25
23172;BME280;11754;42.664;23.594;2023-08-01T04:36:33;95079.47;;;17.83;76.89
23172;BME280;11754;42.664;23.594;2023-08-01T04:38:59;95087.91;;;17.98;76.66
23172;BME280;11754;42.664;23.594;2023-08-01T04:41:24;95077.97;;;18.06;76.35
23172;BME280;11754;42.664;23.594;2023-08-01T04:43:49;95086.06;;;18.17;76.39
23172;BME280;11754;42.664;23.594;2023-08-01T04:46:15;95091.31;;;18.24;76.38
23172;BME280;11754;42.664;23.594;2023-08-01T04:48:40;95083.09;;;18.25;76.65
23172;BME280;11754;42.664;23.594;2023-08-01T04:51:05;95094.88;;;18.36;76.44
23172;BME280;11754;42.664;23.594;2023-08-01T04:53:31;95077.38;;;18.40;76.44
23172;BME280;11754;42.664;23.594;2023-08-01T04:55:56;95075.88;;;18.44;75.96
23172;BME280;11754;42.664;23.594;2023-08-01T04:58:21;95065.94;;;18.52;76.34
23172;BME280;11754;42.664;23.594;2023-08-01T05:00:47;95072.34;;;18.51;76.75
23172;BME280;11754;42.664;23.594;2023-08-01T05:03:12;95073.72;;;18.53;77.06
23172;BME280;11754;42.664;23.594;2023-08-01T05:05:37;95065.13;;;18.51;77.15
23172;BME280;11754;42.664;23.594;2023-08-01T05:26:30;95077.97;;;19.44;76.20
23172;BME280;11754;42.664;23.594;2023-08-01T05:28:56;95086.56;;;19.47;75.79
23172;BME280;11754;42.664;23.594;2023-08-01T05:31:21;95077.97;;;19.56;75.52
23172;BME280;11754;42.664;23.594;2023-08-01T05:33:46;95083.94;;;19.70;75.37
23172;BME280;11754;42.664;23.594;2023-08-01T05:36:12;95087.66;;;19.81;74.92
23172;BME280;11754;42.664;23.594;2023-08-01T05:38:40;95089.28;;;19.93;74.67
23172;BME280;11754;42.664;23.594;2023-08-01T05:41:06;95085.69;;;20.00;73.43
23172;BME280;11754;42.664;23.594;2023-08-01T05:43:31;95084.03;;;20.10;72.52
23172;BME280;11754;42.664;23.594;2023-08-01T05:45:56;95073.19;;;20.17;71.90
23172;BME280;11754;42.664;23.594;2023-08-01T05:48:22;95074.69;;;20.25;71.16
23172;BME280;11754;42.664;23.594;2023-08-01T05:50:48;95078.97;;;20.37;70.38
23172;BME280;11754;42.664;23.594;2023-08-01T05:53:14;95074.66;;;20.36;69.18
23172;BME280;11754;42.664;23.594;2023-08-01T05:55:39;95082.47;;;20.50;67.88
23172;BME280;11754;42.664;23.594;2023-08-01T05:58:05;95081.03;;;20.59;67.97
23172;BME280;11754;42.664;23.594;2023-08-01T06:00:30;95084.44;;;20.54;67.29
23172;BME280;11754;42.664;23.594;2023-08-01T06:02:56;95081.19;;;20.52;66.00
23172;BME280;11754;42.664;23.594;2023-08-01T06:05:21;95080.94;;;20.54;65.15
23172;BME280;11754;42.664;23.594;2023-08-01T06:07:46;95085.16;;;20.38;65.63
23172;BME280;11754;42.664;23.594;2023-08-01T06:10:12;95087.34;;;20.53;66.36
23172;BME280;11754;42.664;23.594;2023-08-01T06:12:37;95081.69;;;20.66;66.36
23172;BME280;11754;42.664;23.594;2023-08-01T06:15:03;95079.81;;;20.78;65.60
23172;BME280;11754;42.664;23.594;2023-08-01T06:17:29;95079.53;;;20.92;65.17
23172;BME280;11754;42.664;23.594;2023-08-01T06:19:54;95075.31;;;20.96;64.79
23172;BME280;11754;42.664;23.594;2023-08-01T06:22:20;95080.44;;;21.14;64.20
23172;BME280;11754;42.664;23.594;2023-08-01T06:24:45;95077.28;;;21.17;63.16
23172;BME280;11754;42.664;23.594;2023-08-01T06:27:10;95068.25;;;21.23;62.39
23172;BME280;11754;42.664;23.594;2023-08-01T06:29:36;95071.59;;;21.30;62.27
23172;BME280;11754;42.664;23.594;2023-08-01T06:32:03;95072.13;;;21.44;62.25
23172;BME280;11754;42.664;23.594;2023-08-01T06:34:28;95077.25;;;21.46;60.43
23172;BME280;11754;42.664;23.594;2023-08-01T06:36:53;95071.00;;;21.57;59.99
23172;BME280;11754;42.664;23.594;2023-08-01T06:39:19;95066.28;;;21.64;59.60
23172;BME280;11754;42.664;23.594;2023-08-01T06:41:44;95059.41;;;21.73;60.08
23172;BME280;11754;42.664;23.594;2023-08-01T06:44:09;95063.31;;;21.82;59.22
23172;BME280;11754;42.664;23.594;2023-08-01T06:46:35;95056.84;;;21.78;59.04
23172;BME280;11754;42.664;23.594;2023-08-01T06:49:00;95052.66;;;21.88;58.62
23172;BME280;11754;42.664;23.594;2023-08-01T06:58:12;95054.47;;;22.21;58.03
23172;BME280;11754;42.664;23.594;2023-08-01T07:00:38;95043.66;;;22.38;57.66
23172;BME280;11754;42.664;23.594;2023-08-01T07:03:03;95046.41;;;22.43;56.74
23172;BME280;11754;42.664;23.594;2023-08-01T07:05:28;95038.59;;;22.63;57.13
23172;BME280;11754;42.664;23.594;2023-08-01T07:07:54;95047.88;;;22.77;56.68
23172;BME280;11754;42.664;23.594;2023-08-01T07:10:19;95047.00;;;22.94;57.23
23172;BME280;11754;42.664;23.594;2023-08-01T07:12:45;95040.47;;;22.90;56.11
23172;BME280;11754;42.664;23.594;2023-08-01T07:15:10;95038.97;;;22.99;54.51
23172;BME280;11754;42.664;23.594;2023-08-01T07:17:36;95038.38;;;23.19;54.83
23172;BME280;11754;42.664;23.594;2023-08-01T07:20:01;95039.53;;;23.33;55.13
23172;BME280;11754;42.664;23.594;2023-08-01T07:22:27;95041.81;;;23.46;53.37
23172;BME280;11754;42.664;23.594;2023-08-01T07:24:53;95030.25;;;23.51;53.16
23172;BME280;11754;42.664;23.594;2023-08-01T07:27:19;95027.22;;;23.69;53.47
23172;BME280;11754;42.664;23.594;2023-08-01T07:29:45;95033.09;;;23.66;53.42
23172;BME280;11754;42.664;23.594;2023-08-01T07:32:10;95030.44;;;23.71;51.71
23172;BME280;11754;42.664;23.594;2023-08-01T07:34:35;95024.63;;;23.85;51.58
23172;BME280;11754;42.664;23.594;2023-08-01T07:37:01;95025.25;;;24.02;52.65
23172;BME280;11754;42.664;23.594;2023-08-01T07:39:26;95028.53;;;24.14;51.75
23172;BME280;11754;42.664;23.594;2023-08-01T07:41:51;95023.78;;;24.32;52.24
23172;BME280;11754;42.664;23.594;2023-08-01T07:44:17;95025.25;;;24.60;50.63
23172;BME280;11754;42.664;23.594;2023-08-01T07:46:42;95017.41;;;24.58;48.71
23172;BME280;11754;42.664;23.594;2023-08-01T07:49:07;95025.50;;;24.53;48.79
23172;BME280;11754;42.664;23.594;2023-08-01T07:51:33;95021.59;;;24.34;47.45
23172;BME280;11754;42.664;23.594;2023-08-01T07:53:59;95015.75;;;24.42;47.72
23172;BME280;11754;42.664;23.594;2023-08-01T07:56:25;95008.53;;;24.63;47.90
23172;BME280;11754;42.664;23.594;2023-08-01T07:58:50;95002.38;;;24.78;47.63
23172;BME280;11754;42.664;23.594;2023-08-01T08:01:15;95015.88;;;24.98;47.07
23172;BME280;11754;42.664;23.594;2023-08-01T08:03:41;95012.66;;;25.06;46.47
23172;BME280;11754;42.664;23.594;2023-08-01T08:06:06;94998.66;;;25.20;46.27
23172;BME280;11754;42.664;23.594;2023-08-01T08:08:32;95004.63;;;25.22;46.25
23172;BME280;11754;42.664;23.594;2023-08-01T08:11:02;95004.63;;;25.22;44.91
23172;BME280;11754;42.664;23.594;2023-08-01T08:13:28;95004.88;;;25.35;46.17
23172;BME280;11754;42.664;23.594;2023-08-01T08:15:56;95000.78;;;25.63;46.47
23172;BME280;11754;42.664;23.594;2023-08-01T08:18:22;94995.38;;;25.74;44.68
23172;BME280;11754;42.664;23.594;2023-08-01T08:20:47;95002.94;;;25.77;43.76
23172;BME280;11754;42.664;23.594;2023-08-01T08:23:13;95006.44;;;25.98;45.29
23172;BME280;11754;42.664;23.594;2023-08-01T08:25:39;94993.38;;;26.20;44.90
23172;BME280;11754;42.664;23.594;2023-08-01T08:28:05;94986.53;;;26.43;44.46
23172;BME280;11754;42.664;23.594;2023-08-01T08:30:30;94987.00;;;26.60;44.32
23172;BME280;11754;42.664;23.594;2023-08-01T08:32:57;94987.56;;;26.63;42.77
23172;BME280;11754;42.664;23.594;2023-08-01T08:35:23;94985.91;;;26.67;42.05
23172;BME280;11754;42.664;23.594;2023-08-01T08:37:49;94984.00;;;26.72;42.41
23172;BME280;11754;42.664;23.594;2023-08-01T08:40:14;94983.25;;;26.62;42.25
23172;BME280;11754;42.664;23.594;2023-08-01T08:42:39;94977.91;;;26.41;42.53
23172;BME280;11754;42.664;23.594;2023-08-01T08:45:06;94978.09;;;26.65;42.86
23172;BME280;11754;42.664;23.594;2023-08-01T08:47:36;94967.38;;;26.89;42.73
23172;BME280;11754;42.664;23.594;2023-08-01T08:53:23;94966.03;;;27.26;41.75
23172;BME280;11754;42.664;23.594;2023-08-01T08:55:49;94962.03;;;27.47;41.93
23172;BME280;11754;42.664;23.594;2023-08-01T08:58:16;94956.84;;;27.85;41.75
23172;BME280;11754;42.664;23.594;2023-08-01T09:00:41;94965.59;;;28.01;41.62
23172;BME280;11754;42.664;23.594;2023-08-01T09:03:07;94954.66;;;28.30;40.88
23172;BME280;11754;42.664;23.594;2023-08-01T09:05:49;94944.69;;;28.49;38.26
23172;BME280;11754;42.664;23.594;2023-08-01T09:08:18;94949.00;;;28.08;37.46
23172;BME280;11754;42.664;23.594;2023-08-01T09:14:06;94947.13;;;28.27;37.61
23172;BME280;11754;42.664;23.594;2023-08-01T09:16:33;94944.03;;;28.77;37.19
23172;BME280;11754;42.664;23.594;2023-08-01T09:18:58;94942.88;;;29.34;37.88
23172;BME280;11754;42.664;23.594;2023-08-01T09:21:24;94929.03;;;29.50;36.94
23172;BME280;11754;42.664;23.594;2023-08-01T09:23:50;94929.22;;;29.53;36.14
23172;BME280;11754;42.664;23.594;2023-08-01T09:26:18;94933.16;;;29.93;35.17
23172;BME280;11754;42.664;23.594;2023-08-01T09:28:44;94926.72;;;30.17;34.14
23172;BME280;11754;42.664;23.594;2023-08-01T09:31:26;94926.41;;;30.82;33.53
23172;BME280;11754;42.664;23.594;2023-08-01T09:33:52;94934.16;;;31.11;30.47
23172;BME280;11754;42.664;23.594;2023-08-01T09:36:21;94918.53;;;31.71;30.41
23172;BME280;11754;42.664;23.594;2023-08-01T09:38:47;94924.66;;;32.16;28.46
23172;BME280;11754;42.664;23.594;2023-08-01T09:41:19;94927.59;;;32.28;29.02
23172;BME280;11754;42.664;23.594;2023-08-01T09:43:46;94917.91;;;33.23;27.80
23172;BME280;11754;42.664;23.594;2023-08-01T09:46:12;94906.06;;;33.75;28.03
23172;BME280;11754;42.664;23.594;2023-08-01T09:48:38;94910.47;;;34.64;25.02
23172;BME280;11754;42.664;23.594;2023-08-01T09:51:24;94899.59;;;35.19;25.53
23172;BME280;11754;42.664;23.594;2023-08-01T09:53:51;94894.25;;;35.55;25.86
23172;BME280;11754;42.664;23.594;2023-08-01T09:56:20;94889.97;;;36.65;25.11
23172;BME280;11754;42.664;23.594;2023-08-01T10:05:32;94866.03;;;44.18;17.87
23172;BME280;11754;42.664;23.594;2023-08-01T10:07:59;94857.97;;;45.09;16.55
23172;BME280;11754;42.664;23.594;2023-08-01T10:10:26;94855.41;;;46.92;15.28
23172;BME280;11754;42.664;23.594;2023-08-01T10:12:56;94851.16;;;49.34;13.98
23172;BME280;11754;42.664;23.594;2023-08-01T10:18:44;94835.41;;;52.91;11.78
23172;BME280;11754;42.664;23.594;2023-08-01T10:21:13;94826.75;;;54.32;11.15
23172;BME280;11754;42.664;23.594;2023-08-01T10:23:39;94823.56;;;55.50;10.49
23172;BME280;11754;42.664;23.594;2023-08-01T10:26:07;94816.22;;;57.20;8.89
23172;BME280;11754;42.664;23.594;2023-08-01T10:28:37;94812.56;;;58.14;8.42
23172;BME280;11754;42.664;23.594;2023-08-01T10:31:12;94815.63;;;59.13;8.13
23172;BME280;11754;42.664;23.594;2023-08-01T10:33:39;94808.28;;;59.58;8.02
23172;BME280;11754;42.664;23.594;2023-08-01T10:38:51;94799.16;;;60.18;7.66
23172;BME280;11754;42.664;23.594;2023-08-01T10:52:22;94768.66;;;60.24;6.90
23172;BME280;11754;42.664;23.594;2023-08-01T10:55:07;94758.78;;;62.03;5.86
23172;BME280;11754;42.664;23.594;2023-08-01T10:57:35;94754.56;;;62.84;5.83
23172;BME280;11754;42.664;23.594;2023-08-01T11:00:02;94761.16;;;63.75;6.11
23172;BME280;11754;42.664;23.594;2023-08-01T11:06:45;94748.72;;;65.48;5.27
23172;BME280;11754;42.664;23.594;2023-08-01T11:09:18;94743.16;;;65.37;5.66
23172;BME280;11754;42.664;23.594;2023-08-01T11:11:46;94736.03;;;62.97;5.82
23172;BME280;11754;42.664;23.594;2023-08-01T11:14:12;94721.31;;;64.02;5.64
23172;BME280;11754;42.664;23.594;2023-08-01T11:16:39;94729.31;;;64.71;5.68
23172;BME280;11754;42.664;23.594;2023-08-01T11:19:05;94717.88;;;63.84;5.55
23172;BME280;11754;42.664;23.594;2023-08-01T11:21:30;94715.94;;;62.14;6.40
23172;BME280;11754;42.664;23.594;2023-08-01T11:23:56;94708.06;;;61.50;6.81
23172;BME280;11754;42.664;23.594;2023-08-01T11:26:22;94709.03;;;61.64;6.62
23172;BME280;11754;42.664;23.594;2023-08-01T11:28:48;94710.75;;;63.91;5.32
23172;BME280;11754;42.664;23.594;2023-08-01T11:31:13;94714.78;;;65.34;5.34
23172;BME280;11754;42.664;23.594;2023-08-01T11:33:39;94716.41;;;66.14;5.58
23172;BME280;11754;42.664;23.594;2023-08-01T11:36:05;94707.44;;;66.92;5.30
23172;BME280;11754;42.664;23.594;2023-08-01T11:38:32;94712.72;;;67.43;4.28
23172;BME280;11754;42.664;23.594;2023-08-01T11:40:59;94711.97;;;66.87;4.56
23172;BME280;11754;42.664;23.594;2023-08-01T11:43:25;94707.06;;;66.61;4.48
23172;BME280;11754;42.664;23.594;2023-08-01T11:48:16;94700.50;;;67.50;4.16
23172;BME280;11754;42.664;23.594;2023-08-01T11:50:41;94712.81;;;68.44;3.89
23172;BME280;11754;42.664;23.594;2023-08-01T11:53:17;94709.38;;;69.28;3.87
23172;BME280;11754;42.664;23.594;2023-08-01T11:55:55;94693.63;;;69.52;3.75
23172;BME280;11754;42.664;23.594;2023-08-01T11:58:33;94689.50;;;69.94;3.39
23172;BME280;11754;42.664;23.594;2023-08-01T12:01:06;94683.41;;;69.28;3.48
23172;BME280;11754;42.664;23.594;2023-08-01T12:03:54;94676.81;;;67.94;3.88
23172;BME280;11754;42.664;23.594;2023-08-01T12:06:21;94673.94;;;68.30;3.94
23172;BME280;11754;42.664;23.594;2023-08-01T12:08:48;94668.97;;;68.38;4.05
23172;BME280;11754;42.664;23.594;2023-08-01T12:13:47;94661.09;;;69.21;3.80
23172;BME280;11754;42.664;23.594;2023-08-01T12:16:13;94655.34;;;69.52;3.89
23172;BME280;11754;42.664;23.594;2023-08-01T12:18:42;94659.56;;;69.66;3.42
23172;BME280;11754;42.664;23.594;2023-08-01T12:21:09;94646.25;;;69.71;3.34
23172;BME280;11754;42.664;23.594;2023-08-01T12:23:36;94641.06;;;69.61;3.57
23172;BME280;11754;42.664;23.594;2023-08-01T12:26:01;94630.81;;;69.83;3.33
23172;BME280;11754;42.664;23.594;2023-08-01T12:28:26;94628.81;;;70.17;2.97
23172;BME280;11754;42.664;23.594;2023-08-01T12:30:52;94629.81;;;70.85;2.99
23172;BME280;11754;42.664;23.594;2023-08-01T12:33:17;94626.31;;;71.36;2.98
23172;BME280;11754;42.664;23.594;2023-08-01T12:35:42;94625.88;;;69.61;3.27
23172;BME280;11754;42.664;23.594;2023-08-01T12:38:08;94620.09;;;70.24;3.47
23172;BME280;11754;42.664;23.594;2023-08-01T12:40:34;94619.84;;;70.95;2.99
23172;BME280;11754;42.664;23.594;2023-08-01T12:42:59;94618.59;;;70.89;3.47
23172;BME280;11754;42.664;23.594;2023-08-01T12:45:25;94608.66;;;70.42;3.48
23172;BME280;11754;42.664;23.594;2023-08-01T12:47:50;94605.34;;;70.05;3.45
23172;BME280;11754;42.664;23.594;2023-08-01T12:50:15;94606.47;;;70.17;3.03
23172;BME280;11754;42.664;23.594;2023-08-01T12:52:41;94600.31;;;70.13;3.55
23172;BME280;11754;42.664;23.594;2023-08-01T12:55:06;94603.56;;;70.17;3.15
23172;BME280;11754;42.664;23.594;2023-08-01T12:57:32;94604.09;;;69.67;3.39
23172;BME280;11754;42.664;23.594;2023-08-01T12:59:58;94587.84;;;64.88;4.25
23172;BME280;11754;42.664;23.594;2023-08-01T13:02:23;94583.59;;;63.62;4.54
23172;BME280;11754;42.664;23.594;2023-08-01T13:04:48;94577.63;;;64.22;4.56
23172;BME280;11754;42.664;23.594;2023-08-01T13:07:14;94573.47;;;65.73;3.91
23172;BME280;11754;42.664;23.594;2023-08-01T13:09:39;94578.34;;;66.81;4.32
23172;BME280;11754;42.664;23.594;2023-08-01T13:12:05;94591.97;;;67.58;3.94
23172;BME280;11754;42.664;23.594;2023-08-01T13:14:32;94582.34;;;66.99;4.03
23172;BME280;11754;42.664;23.594;2023-08-01T13:16:58;94586.41;;;67.03;4.01
23172;BME280;11754;42.664;23.594;2023-08-01T13:19:24;94563.66;;;65.55;4.55
23172;BME280;11754;42.664;23.594;2023-08-01T13:21:50;94559.44;;;65.56;4.18
23172;BME280;11754;42.664;23.594;2023-08-01T13:24:15;94559.78;;;65.26;4.30
23172;BME280;11754;42.664;23.594;2023-08-01T13:26:40;94556.00;;;64.59;4.45
23172;BME280;11754;42.664;23.594;2023-08-01T13:29:06;94552.03;;;63.92;5.30
23172;BME280;11754;42.664;23.594;2023-08-01T13:31:31;94555.31;;;61.49;5.76
23172;BME280;11754;42.664;23.594;2023-08-01T13:33:56;94558.66;;;57.43;7.70
23172;BME280;11754;42.664;23.594;2023-08-01T13:36:23;94558.75;;;55.08;8.18
23172;BME280;11754;42.664;23.594;2023-08-01T13:38:49;94558.31;;;53.20;9.27
23172;BME280;11754;42.664;23.594;2023-08-01T13:41:14;94554.94;;;51.31;10.26
23172;BME280;11754;42.664;23.594;2023-08-01T13:43:52;94569.25;;;49.11;11.75
23172;BME280;11754;42.664;23.594;2023-08-01T13:46:18;94567.25;;;47.82;12.30
23172;BME280;11754;42.664;23.594;2023-08-01T13:48:45;94567.47;;;46.74;13.20
23172;BME280;11754;42.664;23.594;2023-08-01T13:51:11;94572.34;;;45.29;13.97
23172;BME280;11754;42.664;23.594;2023-08-01T13:53:36;94573.78;;;44.41;14.59
23172;BME280;11754;42.664;23.594;2023-08-01T13:56:08;94558.97;;;43.59;15.16
23172;BME280;11754;42.664;23.594;2023-08-01T13:58:33;94580.06;;;43.17;16.17
23172;BME280;11754;42.664;23.594;2023-08-01T14:01:03;94578.34;;;41.54;16.31
23172;BME280;11754;42.664;23.594;2023-08-01T14:03:29;94570.53;;;41.08;17.34
23172;BME280;11754;42.664;23.594;2023-08-01T14:05:54;94572.78;;;40.54;17.36
23172;BME280;11754;42.664;23.594;2023-08-01T14:08:21;94568.44;;;40.16;17.91
23172;BME280;11754;42.664;23.594;2023-08-01T14:10:46;94582.47;;;40.04;18.27
23172;BME280;11754;42.664;23.594;2023-08-01T14:13:11;94565.25;;;39.27;18.95
23172;BME280;11754;42.664;23.594;2023-08-01T14:15:37;94588.50;;;39.26;18.60
23172;BME280;11754;42.664;23.594;2023-08-01T14:18:02;94585.03;;;39.06;18.54
23172;BME280;11754;42.664;23.594;2023-08-01T14:20:28;94581.66;;;38.93;18.96
23172;BME280;11754;42.664;23.594;2023-08-01T14:22:53;94575.75;;;38.07;19.73
23172;BME280;11754;42.664;23.594;2023-08-01T14:54:23;94571.91;;;36.42;22.01
23172;BME280;11754;42.664;23.594;2023-08-01T14:56:51;94567.97;;;36.27;21.80
23172;BME280;11754;42.664;23.594;2023-08-01T14:59:16;94562.06;;;36.25;21.46
23172;BME280;11754;42.664;23.594;2023-08-01T15:01:41;94562.41;;;36.24;21.68
23172;BME280;11754;42.664;23.594;2023-08-01T15:04:06;94553.09;;;36.13;21.75
23172;BME280;11754;42.664;23.594;2023-08-01T15:06:32;94557.06;;;35.99;21.81
23172;BME280;11754;42.664;23.594;2023-08-01T15:08:57;94555.69;;;35.93;21.28
23172;BME280;11754;42.664;23.594;2023-08-01T15:11:22;94558.84;;;35.95;21.65
23172;BME280;11754;42.664;23.594;2023-08-01T15:17:10;94545.25;;;35.71;21.86
23172;BME280;11754;42.664;23.594;2023-08-01T15:19:35;94544.59;;;35.61;21.31
23172;BME280;11754;42.664;23.594;2023-08-01T15:22:01;94528.63;;;35.51;21.57
23172;BME280;11754;42.664;23.594;2023-08-01T15:24:29;94533.44;;;35.42;21.79
23172;BME280;11754;42.664;23.594;2023-08-01T15:26:54;94533.44;;;35.42;22.14
23172;BME280;11754;42.664;23.594;2023-08-01T15:29:19;94531.19;;;35.32;21.91
23172;BME280;11754;42.664;23.594;2023-08-01T15:31:45;94539.88;;;35.22;22.36
23172;BME280;11754;42.664;23.594;2023-08-01T15:34:10;94535.75;;;34.91;22.16